Time;durP1;ratioP1;P1;durP2;ratioP2;P2;SDS_P1;SDS_P2;PMS_P1;PMS_P2;Temp;Humidity;BMP_temperature;BMP_pressure;BME280_temperature;BME280_humidity;BME280_pressure;Samples;Min_cycle;Max_cycle;Signal;HPM_P1;HPM_P2
2023/06/25 00:02:10;;;;;;;29.55;18.20;;;;;;;-146.27;85.74;81130.88;5031648;28;20096;-72
2023/06/25 00:04:35;;;;;;;28.13;17.75;;;;;;;-146.27;85.91;81146.97;5028935;28;20121;-72
2023/06/25 00:07:01;;;;;;;28.88;17.80;;;;;;;-146.27;86.18;81142.94;5026457;28;20053;-72
2023/06/25 00:09:26;;;;;;;29.20;18.17;;;;;;;-146.27;86.52;81138.91;5030535;28;20029;-72
2023/06/25 00:11:52;;;;;;;26.83;17.42;;;;;;;-146.27;86.30;81124.88;5034259;28;20496;-71
2023/06/25 00:14:17;;;;;;;33.08;18.45;;;;;;;-146.27;86.95;81114.81;5035817;28;21158;-72
2023/06/25 00:16:43;;;;;;;28.98;18.33;;;;;;;-146.27;86.89;81193.16;5032791;28;20106;-72
2023/06/25 00:19:08;;;;;;;29.58;17.67;;;;;;;-146.27;87.48;81181.09;5032319;28;20040;-72
2023/06/25 00:21:34;;;;;;;27.67;17.52;;;;;;;-146.27;87.34;81185.13;5032331;28;20028;-72
2023/06/25 00:23:59;;;;;;;27.73;18.02;;;;;;;-146.27;87.46;81159.00;5036998;28;20618;-72
2023/06/25 00:26:24;;;;;;;28.17;17.10;;;;;;;-146.27;87.35;81173.06;5029119;28;20036;-72
2023/06/25 00:28:50;;;;;;;28.67;17.80;;;;;;;-146.27;87.63;81179.09;5033923;28;20530;-72
2023/06/25 00:31:15;;;;;;;28.38;17.42;;;;;;;-146.27;87.85;81211.22;5030381;28;20053;-73
2023/06/25 00:33:49;;;;;;;24.10;16.10;;;;;;;-146.27;87.75;81199.16;5030914;28;20400;-72
2023/06/25 00:36:15;;;;;;;26.55;16.63;;;;;;;-146.27;87.46;81179.09;5014057;28;20021;-72
2023/06/25 00:38:42;;;;;;;25.52;16.40;;;;;;;-146.27;87.54;81233.31;5033951;28;20033;-72
2023/06/25 00:41:09;;;;;;;24.70;15.32;;;;;;;-146.27;88.03;81195.16;5028932;28;20071;-71
2023/06/25 00:43:35;;;;;;;25.63;16.83;;;;;;;-146.27;87.60;81175.06;5034506;28;20028;-70
2023/06/25 00:46:00;;;;;;;22.60;15.57;;;;;;;-146.27;87.88;81225.28;5032654;28;20044;-71
2023/06/25 00:48:27;;;;;;;26.30;15.73;;;;;;;-146.27;87.69;81223.25;5033973;28;20056;-71
2023/06/25 00:50:52;;;;;;;23.65;15.63;;;;;;;-146.27;87.92;81229.28;5030370;28;20124;-72
2023/06/25 00:53:19;;;;;;;24.10;15.52;;;;;;;-146.27;88.42;81225.28;5035991;28;20112;-72
2023/06/25 00:55:50;;;;;;;25.27;15.25;;;;;;;-146.27;88.46;81231.31;5030520;28;20115;-72
2023/06/25 00:58:20;;;;;;;23.13;16.00;;;;;;;-146.27;88.25;81221.25;5031017;28;20188;-71
2023/06/25 01:00:46;;;;;;;26.00;15.45;;;;;;;-146.27;88.98;81235.31;5033389;28;20048;-72
2023/06/25 01:03:26;;;;;;;25.98;16.02;;;;;;;-146.27;88.95;81267.44;5030412;28;20316;-72
2023/06/25 01:06:08;;;;;;;25.13;15.35;;;;;;;-146.27;88.75;81255.41;5040042;28;20029;-72
2023/06/25 01:08:37;;;;;;;24.20;14.88;;;;;;;-146.27;88.90;81287.53;5041528;28;20032;-72
2023/06/25 01:11:04;;;;;;;23.63;14.98;;;;;;;-146.27;89.09;81279.50;5039761;28;20393;-71
2023/06/25 01:13:30;;;;;;;20.80;14.07;;;;;;;-146.27;88.98;81291.53;5041257;28;20074;-72
2023/06/25 01:15:55;;;;;;;22.77;14.40;;;;;;;-146.27;88.76;81303.59;5039652;28;20028;-72
2023/06/25 01:18:23;;;;;;;25.73;14.52;;;;;;;-146.27;89.16;81301.59;5040713;28;20392;-71
2023/06/25 01:20:51;;;;;;;21.38;14.07;;;;;;;-146.27;88.89;81287.53;5044219;28;20060;-72
2023/06/25 01:23:21;;;;;;;22.83;13.80;;;;;;;-146.27;89.40;81275.47;5045836;28;20020;-71
2023/06/25 01:25:48;;;;;;;21.38;14.35;;;;;;;-146.27;89.92;81291.53;5044749;28;20044;-72
2023/06/25 01:28:14;;;;;;;18.80;12.57;;;;;;;-146.27;89.18;81311.63;5045600;28;20120;-72
2023/06/25 01:30:39;;;;;;;22.27;13.88;;;;;;;-146.27;88.99;81281.50;5044455;28;20119;-71
2023/06/25 01:33:05;;;;;;;19.40;13.27;;;;;;;-146.27;89.40;81281.50;5045095;28;20083;-71
2023/06/25 01:35:30;;;;;;;23.45;14.27;;;;;;;-146.27;89.79;81301.59;5045282;28;20036;-71
2023/06/25 01:37:56;;;;;;;20.38;12.32;;;;;;;-146.27;89.28;81299.59;5044070;28;20032;-72
2023/06/25 01:40:22;;;;;;;20.70;13.35;;;;;;;-146.27;89.67;81307.63;5045744;28;20586;-72
2023/06/25 01:42:47;;;;;;;19.08;13.70;;;;;;;-146.27;89.69;81291.53;5044442;28;20077;-71
2023/06/25 01:45:13;;;;;;;20.25;13.00;;;;;;;-146.27;89.96;81331.72;5043268;28;20040;-71
2023/06/25 01:47:39;;;;;;;21.20;13.00;;;;;;;-146.27;89.77;81335.72;5045860;28;20040;-71
2023/06/25 01:50:05;;;;;;;18.15;11.75;;;;;;;-146.27;89.94;81347.78;5044766;28;20028;-72
2023/06/25 01:52:32;;;;;;;18.30;12.25;;;;;;;-146.27;90.11;81341.75;5044687;28;20028;-71
2023/06/25 01:54:58;;;;;;;19.38;12.85;;;;;;;-146.27;90.64;81351.78;5043079;28;20107;-73
2023/06/25 01:57:23;;;;;;;20.42;12.60;;;;;;;-146.27;90.54;81359.81;5044497;28;20120;-71
2023/06/25 01:59:48;;;;;;;22.58;12.68;;;;;;;-146.27;90.53;81377.91;5044775;28;20094;-71
2023/06/25 02:02:14;;;;;;;17.02;11.70;;;;;;;-146.27;90.79;81383.94;5044615;28;20506;-72
2023/06/25 02:04:39;;;;;;;16.67;11.90;;;;;;;-146.27;90.76;81351.78;5043714;28;20570;-72
2023/06/25 02:07:05;;;;;;;17.05;11.20;;;;;;;-146.27;90.50;81339.75;5043519;28;20032;-71
2023/06/25 02:09:30;;;;;;;17.33;11.30;;;;;;;-146.27;90.88;81363.84;5042615;28;20090;-71
2023/06/25 02:11:56;;;;;;;18.08;11.70;;;;;;;-146.27;90.54;81391.97;5044436;28;20025;-71
2023/06/25 02:14:21;;;;;;;16.60;11.52;;;;;;;-146.27;91.30;81379.91;5044237;28;20116;-71
2023/06/25 02:16:46;;;;;;;19.92;12.10;;;;;;;-146.27;90.64;81383.94;5044833;28;20021;-71
2023/06/25 02:19:12;;;;;;;18.50;11.48;;;;;;;-146.27;90.29;81373.88;5044553;28;20025;-70
2023/06/25 02:21:37;;;;;;;18.17;11.80;;;;;;;-146.27;90.77;81377.91;5034016;28;20032;-72
2023/06/25 02:24:03;;;;;;;21.45;13.20;;;;;;;-146.27;91.51;81371.88;5045692;28;20033;-71
2023/06/25 02:26:29;;;;;;;17.38;12.18;;;;;;;-146.27;91.83;81347.78;5043704;28;20024;-71
2023/06/25 02:28:54;;;;;;;18.85;12.65;;;;;;;-146.27;91.68;81363.84;5044105;28;20496;-71
2023/06/25 02:31:20;;;;;;;18.92;12.63;;;;;;;-146.27;91.60;81335.72;5042315;28;20021;-71
2023/06/25 02:33:46;;;;;;;22.17;12.05;;;;;;;-146.27;91.23;81337.75;5042615;28;20035;-72
2023/06/25 02:36:11;;;;;;;20.33;14.38;;;;;;;-146.27;91.63;81335.72;5025729;28;20060;-72
2023/06/25 02:38:37;;;;;;;22.45;13.85;;;;;;;-146.27;92.23;81343.75;5044042;28;20400;-71
2023/06/25 02:41:02;;;;;;;22.95;14.35;;;;;;;-146.27;92.42;81391.97;5042629;28;20025;-72
2023/06/25 02:43:27;;;;;;;21.75;13.85;;;;;;;-146.27;92.52;81299.59;5043887;28;20565;-72
2023/06/25 02:45:53;;;;;;;19.45;13.00;;;;;;;-146.27;92.11;81331.72;5046501;28;20036;-72
2023/06/25 02:48:18;;;;;;;19.33;13.65;;;;;;;-146.27;92.26;81347.78;5046992;28;20119;-71
2023/06/25 02:50:44;;;;;;;19.90;14.23;;;;;;;-146.27;92.29;81377.91;5043120;28;20114;-72
2023/06/25 02:53:09;;;;;;;21.65;14.20;;;;;;;-146.27;92.79;81369.88;5043228;28;20025;-72
2023/06/25 02:55:34;;;;;;;20.88;13.05;;;;;;;-146.27;91.98;81404.00;5044355;28;20021;-72
2023/06/25 02:58:00;;;;;;;19.45;12.50;;;;;;;-146.27;91.52;81343.75;5041312;28;20396;-72
2023/06/25 03:00:25;;;;;;;18.95;12.45;;;;;;;-146.27;91.22;81404.00;5043140;28;20017;-72
2023/06/25 03:02:51;;;;;;;20.67;12.88;;;;;;;-146.27;91.32;81404.00;5025167;28;20472;-71
2023/06/25 03:05:16;;;;;;;18.88;12.80;;;;;;;-146.27;91.67;81375.91;5043118;28;20035;-72
2023/06/25 03:07:52;;;;;;;19.95;12.73;;;;;;;-146.27;91.73;81387.94;5042565;28;20033;-72
2023/06/25 03:10:18;;;;;;;20.23;13.43;;;;;;;-146.27;91.97;81428.09;5041652;28;20035;-72
2023/06/25 03:12:43;;;;;;;17.38;12.68;;;;;;;-146.27;92.07;81404.00;5023805;28;20029;-72
2023/06/25 03:15:09;;;;;;;23.08;12.82;;;;;;;-146.27;92.15;81404.00;5043535;28;20126;-73
2023/06/25 03:17:35;;;;;;;19.92;12.95;;;;;;;-146.27;92.00;81393.97;5043372;28;20017;-72
2023/06/25 03:20:00;;;;;;;16.25;11.63;;;;;;;-146.27;92.09;81387.94;5030906;28;20029;-72
2023/06/25 03:22:25;;;;;;;17.42;12.57;;;;;;;-146.27;91.63;81412.03;5044247;28;20123;-72
2023/06/25 03:24:51;;;;;;;18.92;12.55;;;;;;;-146.27;91.76;81397.97;5043477;28;21438;-72
2023/06/25 03:27:17;;;;;;;24.73;12.57;;;;;;;-146.27;91.82;81416.06;5028210;28;20127;-72
2023/06/25 03:29:42;;;;;;;23.20;12.70;;;;;;;-146.27;92.18;81436.16;5027214;28;20025;-72
2023/06/25 03:32:07;;;;;;;17.90;12.10;;;;;;;-146.27;92.18;81490.38;5042185;28;20035;-72
2023/06/25 03:34:33;;;;;;;19.73;12.90;;;;;;;-146.27;92.26;81432.13;5042056;28;20079;-73
2023/06/25 03:36:58;;;;;;;18.52;12.55;;;;;;;-146.27;92.73;81420.06;5046213;28;20496;-72
2023/06/25 03:39:23;;;;;;;20.77;13.15;;;;;;;-146.27;92.20;81408.03;5041439;28;20608;-71
2023/06/25 03:41:49;;;;;;;16.70;11.73;;;;;;;-146.27;92.19;81414.06;5045239;28;20025;-72
2023/06/25 03:44:14;;;;;;;16.27;11.82;;;;;;;-146.27;91.84;81442.16;5047169;28;20391;-72
2023/06/25 03:46:39;;;;;;;16.92;11.63;;;;;;;-146.27;92.52;81426.09;5042381;28;20155;-71
2023/06/25 03:49:05;;;;;;;17.40;12.27;;;;;;;-146.27;91.81;81446.19;5041292;28;20032;-71
2023/06/25 03:51:30;;;;;;;19.98;13.40;;;;;;;-146.27;92.18;81460.25;5042652;28;20056;-72
2023/06/25 03:53:55;;;;;;;22.55;13.18;;;;;;;-146.27;92.04;81448.19;5025561;28;20116;-72
2023/06/25 03:56:21;;;;;;;18.92;12.25;;;;;;;-146.27;92.38;81436.16;5042733;28;20033;-72
2023/06/25 03:58:46;;;;;;;16.08;11.93;;;;;;;-146.27;92.42;81462.25;5042269;28;20116;-71
2023/06/25 04:01:11;;;;;;;20.85;12.77;;;;;;;-146.27;92.76;81428.09;5048869;28;20024;-71
2023/06/25 04:03:37;;;;;;;20.92;12.65;;;;;;;-146.27;92.44;81472.28;5042619;28;20494;-73
2023/06/25 04:06:03;;;;;;;22.52;12.57;;;;;;;-146.27;92.85;81420.06;5042543;28;20056;-71
2023/06/25 04:08:28;;;;;;;18.65;12.27;;;;;;;-146.27;92.67;81448.19;5044877;28;20033;-72
2023/06/25 04:10:53;;;;;;;19.30;12.25;;;;;;;-146.27;93.07;81456.22;5041120;28;20040;-72
2023/06/25 04:13:19;;;;;;;20.95;12.95;;;;;;;-146.27;93.49;81452.22;5046012;28;20499;-72
2023/06/25 04:15:44;;;;;;;19.13;11.93;;;;;;;-146.27;92.51;81434.13;5045077;28;20035;-72
2023/06/25 04:18:09;;;;;;;21.40;12.38;;;;;;;-146.27;93.24;81400.00;5048919;28;20102;-73
2023/06/25 04:20:35;;;;;;;16.90;11.80;;;;;;;-146.27;93.08;81420.06;5047157;28;20071;-72
2023/06/25 04:23:00;;;;;;;18.67;11.63;;;;;;;-146.27;93.29;81410.03;5045207;28;20079;-71
2023/06/25 04:25:25;;;;;;;17.38;11.95;;;;;;;-146.27;92.77;81369.88;5041363;28;20084;-69
2023/06/25 04:27:51;;;;;;;20.38;12.88;;;;;;;-146.27;93.08;81379.91;5046006;28;20102;-69
2023/06/25 04:30:16;;;;;;;20.40;11.38;;;;;;;-146.27;92.64;81355.81;5046750;28;20113;-69
2023/06/25 04:32:42;;;;;;;19.13;12.57;;;;;;;-146.27;92.84;81371.88;5049551;28;20435;-69
2023/06/25 04:35:08;;;;;;;19.35;12.30;;;;;;;-146.27;93.13;81341.75;5047435;28;20826;-69
2023/06/25 04:37:33;;;;;;;25.88;13.18;;;;;;;-146.27;92.81;81343.75;5046783;28;20040;-70
2023/06/25 04:40:00;;;;;;;17.60;11.48;;;;;;;-146.27;92.57;81343.75;5047585;28;20035;-69
2023/06/25 04:42:25;;;;;;;19.10;12.10;;;;;;;-146.27;92.93;81367.88;5046821;28;20120;-70
2023/06/25 04:44:54;;;;;;;19.67;11.73;;;;;;;-146.27;93.10;81339.75;5048696;28;20337;-69
2023/06/25 04:47:19;;;;;;;19.42;12.10;;;;;;;-146.27;93.14;81343.75;5045844;28;20028;-69
2023/06/25 04:49:44;;;;;;;19.10;11.82;;;;;;;-146.27;92.96;81331.72;5049615;28;20032;-69
2023/06/25 04:52:17;;;;;;;16.45;12.18;;;;;;;-146.27;93.33;81297.56;5043492;28;20032;-69
2023/06/25 04:54:42;;;;;;;18.77;11.10;;;;;;;-146.27;92.98;81291.53;5068795;28;20422;-69
2023/06/25 04:57:07;;;;;;;21.02;12.65;;;;;;;-146.27;92.84;81239.34;5042882;28;20025;-70
2023/06/25 04:59:33;;;;;;;20.80;11.52;;;;;;;-146.27;92.56;81271.47;5045192;28;20052;-69
2023/06/25 05:01:58;;;;;;;20.00;12.43;;;;;;;-146.27;92.77;81257.41;5048433;28;20052;-69
2023/06/25 05:04:24;;;;;;;18.65;11.80;;;;;;;-146.27;92.13;81233.31;5049738;28;20480;-68
2023/06/25 05:06:49;;;;;;;18.90;12.80;;;;;;;-146.27;91.77;81217.25;5046393;28;20116;-69
2023/06/25 05:09:14;;;;;;;21.55;12.55;;;;;;;-146.27;91.49;81185.13;5037473;28;20021;-70
2023/06/25 05:11:40;;;;;;;21.10;11.95;;;;;;;-146.27;91.44;81157.00;5043928;28;20423;-68
2023/06/25 05:14:05;;;;;;;23.27;13.90;;;;;;;-146.27;89.94;81167.03;5043280;28;20424;-70
2023/06/25 05:16:30;;;;;;;21.30;13.43;;;;;;;-146.27;89.76;81132.91;5045625;28;20071;-70
2023/06/25 05:18:56;;;;;;;20.33;12.65;;;;;;;-146.27;88.99;81130.88;5045990;28;20064;-68
2023/06/25 05:21:21;;;;;;;20.40;13.05;;;;;;;-146.27;89.33;81086.72;5047615;28;20025;-68
2023/06/25 05:24:00;;;;;;;22.67;12.90;;;;;;;-146.27;88.21;81060.59;5046780;28;20055;-68
2023/06/25 05:26:27;;;;;;;20.05;13.15;;;;;;;-146.27;87.94;81062.59;5033799;28;20489;-68
2023/06/25 05:28:52;;;;;;;21.90;12.35;;;;;;;-146.27;87.28;81032.50;5044769;28;20106;-69
2023/06/25 05:31:18;;;;;;;25.38;12.55;;;;;;;-146.27;85.56;80968.22;5047918;28;20037;-69
2023/06/25 05:33:43;;;;;;;20.92;12.23;;;;;;;-146.27;85.15;80978.28;5040563;28;20469;-70
2023/06/25 05:36:09;;;;;;;18.58;11.32;;;;;;;-146.27;84.04;80954.19;5048511;28;20033;-69
2023/06/25 05:38:34;;;;;;;17.13;11.73;;;;;;;-146.27;83.15;80958.19;5045565;28;20146;-70
2023/06/25 05:40:59;;;;;;;21.63;12.23;;;;;;;-146.27;81.35;80893.94;5048897;28;20079;-68
2023/06/25 05:43:25;;;;;;;20.33;11.15;;;;;;;-146.27;81.65;80897.94;5045257;28;20563;-69
2023/06/25 05:45:50;;;;;;;18.17;10.90;;;;;;;-146.27;80.94;80873.84;5038888;28;20037;-70
2023/06/25 05:48:16;;;;;;;17.70;11.68;;;;;;;-146.27;80.78;80843.72;5041431;28;20033;-69
2023/06/25 05:50:41;;;;;;;18.15;11.88;;;;;;;-146.27;79.09;80821.63;5045832;28;20033;-69
2023/06/25 05:53:07;;;;;;;19.08;11.77;;;;;;;-146.27;79.17;80809.59;5039250;28;20044;-69
2023/06/25 05:55:33;;;;;;;17.65;11.30;;;;;;;-146.27;79.53;80815.63;5044568;28;20082;-70
2023/06/25 05:57:58;;;;;;;19.15;11.63;;;;;;;-146.27;78.50;80787.50;5026784;28;20061;-70
2023/06/25 06:00:23;;;;;;;17.67;11.10;;;;;;;-146.27;77.48;80753.38;5043849;28;20040;-68
2023/06/25 06:02:49;;;;;;;15.75;10.70;;;;;;;-146.27;77.64;80713.22;5047712;28;20021;-70
2023/06/25 06:05:14;;;;;;;13.98;9.35;;;;;;;-146.27;76.42;80707.19;5028130;28;20025;-69
2023/06/25 06:07:40;;;;;;;15.45;9.85;;;;;;;-146.27;75.42;80717.22;5049615;28;20029;-70
2023/06/25 06:10:06;;;;;;;18.40;11.63;;;;;;;-146.27;74.85;80661.00;5048117;28;20416;-69
2023/06/25 06:12:31;;;;;;;16.23;10.70;;;;;;;-146.27;74.48;80604.78;5042930;28;20473;-70
2023/06/25 06:14:56;;;;;;;13.05;9.60;;;;;;;-146.27;74.58;80572.66;5051439;28;20029;-71
2023/06/25 06:17:22;;;;;;;17.35;10.55;;;;;;;-146.27;73.73;80580.69;5046824;28;20434;-68
2023/06/25 06:19:47;;;;;;;13.50;9.82;;;;;;;-146.27;72.70;80574.66;5045255;28;20022;-68
2023/06/25 06:22:13;;;;;;;15.77;9.90;;;;;;;-146.27;71.51;80546.56;5039591;28;20032;-69
2023/06/25 06:24:38;;;;;;;14.60;9.82;;;;;;;-146.27;71.41;80512.41;5034063;28;20120;-71
2023/06/25 06:27:05;;;;;;;16.42;9.27;;;;;;;-146.27;71.00;80492.34;5033516;28;20389;-70
2023/06/25 06:29:30;;;;;;;14.70;9.10;;;;;;;-146.27;70.34;80450.19;5038984;28;20037;-68
2023/06/25 06:31:56;;;;;;;15.63;9.38;;;;;;;-146.27;69.27;80426.09;5050034;28;20017;-69
2023/06/25 06:34:21;;;;;;;10.85;7.35;;;;;;;-146.27;69.46;80404.00;5042633;28;20395;-69
2023/06/25 06:36:46;;;;;;;10.60;7.93;;;;;;;-146.27;68.81;80353.81;5032349;28;20025;-69
2023/06/25 06:39:14;;;;;;;14.10;8.48;;;;;;;-146.27;67.72;80331.72;5041388;28;20028;-68
2023/06/25 06:41:39;;;;;;;14.63;8.75;;;;;;;-146.27;67.73;80311.63;5035346;28;20017;-69
2023/06/25 06:44:12;;;;;;;12.68;8.98;;;;;;;-146.27;68.52;80301.59;5050458;28;20690;-69
2023/06/25 06:46:37;;;;;;;13.63;9.18;;;;;;;-146.27;67.30;80199.22;5036089;28;20025;-68
2023/06/25 06:49:02;;;;;;;16.17;8.75;;;;;;;-146.27;66.17;80223.28;5033383;28;20029;-70
2023/06/25 06:51:28;;;;;;;12.35;7.38;;;;;;;-146.27;65.85;80209.25;5048637;28;20030;-69
2023/06/25 06:53:53;;;;;;;13.25;7.78;;;;;;;-146.27;65.86;80179.13;5043173;28;20055;-70
2023/06/25 06:56:18;;;;;;;10.93;8.13;;;;;;;-146.27;65.59;80138.97;5033129;28;20123;-68
2023/06/25 06:58:44;;;;;;;10.23;7.70;;;;;;;-146.27;65.75;80147.00;5036987;28;20050;-70
2023/06/25 07:01:09;;;;;;;15.18;8.35;;;;;;;-146.27;65.97;80086.78;5049170;28;20025;-71
2023/06/25 07:03:34;;;;;;;14.43;8.32;;;;;;;-146.27;63.40;80098.81;5049221;28;20021;-68
2023/06/25 07:06:00;;;;;;;12.95;8.15;;;;;;;-146.27;63.45;80014.50;5051716;28;20020;-69
2023/06/25 07:08:25;;;;;;;9.38;7.15;;;;;;;-146.27;62.93;79970.34;5031253;28;20025;-69
2023/06/25 07:10:50;;;;;;;11.77;8.48;;;;;;;-146.27;62.50;79958.28;5050437;28;20300;-67
2023/06/25 07:13:16;;;;;;;14.43;8.48;;;;;;;-146.27;61.64;79932.19;5029788;28;20480;-67
2023/06/25 07:15:41;;;;;;;18.60;8.63;;;;;;;-146.27;61.55;79908.09;5050302;28;20029;-69
2023/06/25 07:18:07;;;;;;;13.18;8.90;;;;;;;-146.27;60.73;79875.97;5047341;28;20464;-68
2023/06/25 07:20:32;;;;;;;10.77;7.50;;;;;;;-146.27;61.50;79869.94;5048462;28;20017;-69
2023/06/25 07:22:57;;;;;;;11.88;8.07;;;;;;;-146.27;60.99;79823.78;5049468;28;20029;-68
2023/06/25 07:25:23;;;;;;;12.13;7.65;;;;;;;-146.27;60.99;79787.66;5051275;28;20114;-69
2023/06/25 07:27:48;;;;;;;10.13;6.25;;;;;;;-146.27;60.51;79767.56;5051270;28;20048;-69
2023/06/25 07:30:14;;;;;;;13.73;7.57;;;;;;;-146.27;59.82;79713.38;5059905;28;20033;-68
2023/06/25 07:32:39;;;;;;;10.43;6.53;;;;;;;-146.27;58.88;79721.41;5050276;28;20036;-68
2023/06/25 07:35:05;;;;;;;9.27;6.50;;;;;;;-146.27;58.54;79645.13;5051244;28;20094;-68
2023/06/25 07:37:30;;;;;;;11.68;7.40;;;;;;;-146.27;57.51;79623.03;5051033;28;20554;-68
2023/06/25 07:39:56;;;;;;;12.52;6.53;;;;;;;-146.27;56.60;79592.91;5050983;28;20099;-69
2023/06/25 07:42:21;;;;;;;10.65;5.60;;;;;;;-146.27;56.68;79552.78;5050105;28;20029;-68
2023/06/25 07:44:46;;;;;;;8.35;6.00;;;;;;;-146.27;54.48;79536.72;5050979;28;20484;-67
2023/06/25 07:47:12;;;;;;;9.52;6.43;;;;;;;-146.27;54.16;79478.50;5050869;28;20035;-69
2023/06/25 07:49:37;;;;;;;9.25;6.50;;;;;;;-146.27;55.09;79460.44;5048021;28;20031;-66
2023/06/25 07:52:03;;;;;;;11.07;5.68;;;;;;;-146.27;52.52;79496.56;5049077;28;20025;-67
2023/06/25 07:54:29;;;;;;;9.88;5.20;;;;;;;-146.27;52.22;79412.25;5050845;28;20447;-69
2023/06/25 07:56:54;;;;;;;9.70;5.43;;;;;;;-146.27;52.68;79398.22;5050957;28;20365;-68
2023/06/25 07:59:19;;;;;;;6.85;5.32;;;;;;;-146.27;52.45;79386.16;5049477;28;20045;-69
2023/06/25 08:01:45;;;;;;;8.35;5.00;;;;;;;-146.27;51.26;79315.91;5049504;28;20390;-69
2023/06/25 08:04:10;;;;;;;9.20;5.47;;;;;;;-146.27;51.57;79279.78;5050723;28;20021;-67
2023/06/25 08:06:36;;;;;;;6.45;4.70;;;;;;;-146.27;50.61;79223.56;5050338;28;20032;-68
2023/06/25 08:09:02;;;;;;;8.52;6.68;;;;;;;-146.27;50.09;79199.50;5049786;28;20028;-67
2023/06/25 08:11:28;;;;;;;8.27;5.82;;;;;;;-146.27;49.17;79193.47;5049262;28;20043;-69
2023/06/25 08:13:54;;;;;;;8.25;6.50;;;;;;;-146.27;49.06;79111.16;5048216;28;20041;-68
2023/06/25 08:16:19;;;;;;;8.05;5.65;;;;;;;-146.27;48.50;79075.03;5050390;28;20032;-68
2023/06/25 08:18:44;;;;;;;11.73;6.40;;;;;;;-146.27;48.95;79034.91;5050215;28;20313;-69
2023/06/25 08:21:10;;;;;;;7.45;4.43;;;;;;;-146.27;44.02;79048.94;5050292;28;20021;-67
2023/06/25 08:23:35;;;;;;;7.40;4.43;;;;;;;-146.27;44.00;79042.94;5049543;28;20036;-70
2023/06/25 08:26:02;;;;;;;4.60;3.92;;;;;;;-146.27;45.10;78974.69;5049375;28;20120;-68
2023/06/25 08:28:28;;;;;;;6.85;4.07;;;;;;;-146.27;43.39;78970.69;5049876;28;20032;-69
2023/06/25 08:30:53;;;;;;;6.25;4.32;;;;;;;-146.27;43.39;78930.53;5049100;28;20029;-69
2023/06/25 08:33:18;;;;;;;8.02;4.30;;;;;;;-146.27;43.31;78902.44;5050269;28;20445;-68
2023/06/25 08:35:44;;;;;;;7.32;3.67;;;;;;;-146.27;42.22;78894.41;5050102;28;20020;-67
2023/06/25 08:38:10;;;;;;;8.45;4.78;;;;;;;-146.27;41.71;78910.47;5049160;28;20108;-70
2023/06/25 08:40:36;;;;;;;7.07;4.28;;;;;;;-146.27;41.17;78812.13;5050076;28;20036;-69
2023/06/25 08:43:02;;;;;;;9.15;4.95;;;;;;;-146.27;41.50;78846.25;5048974;28;20029;-70
2023/06/25 08:45:28;;;;;;;9.23;4.60;;;;;;;-146.27;41.64;78800.06;5049874;28;20028;-69
2023/06/25 08:47:55;;;;;;;10.45;4.53;;;;;;;-146.27;42.57;78737.84;5049886;28;20029;-68
2023/06/25 08:50:21;;;;;;;6.57;4.60;;;;;;;-146.27;42.10;78681.66;5049737;28;20028;-67
2023/06/25 08:52:47;;;;;;;6.97;4.25;;;;;;;-146.27;41.13;78641.53;5047052;28;20400;-71
2023/06/25 08:55:14;;;;;;;6.00;3.65;;;;;;;-146.27;40.64;78613.44;5048629;28;20112;-69
2023/06/25 08:57:39;;;;;;;14.30;3.78;;;;;;;-146.27;39.85;78537.16;5048736;28;20388;-68
2023/06/25 09:00:07;;;;;;;6.47;3.28;;;;;;;-146.27;39.01;78474.94;5049874;28;20036;-68
2023/06/25 09:02:33;;;;;;;4.88;2.95;;;;;;;-146.27;38.02;78414.75;5049065;28;20029;-68
2023/06/25 09:05:10;;;;;;;5.93;3.85;;;;;;;-146.27;38.43;78362.56;5049752;28;20028;-69
2023/06/25 09:07:46;;;;;;;6.63;3.92;;;;;;;-146.27;38.59;78300.34;5047783;28;20653;-69
2023/06/25 09:10:12;;;;;;;6.85;4.07;;;;;;;-146.27;38.13;78334.47;5049597;28;20020;-69
2023/06/25 09:12:37;;;;;;;6.32;3.40;;;;;;;-146.27;38.25;78302.38;5046836;28;20430;-68
2023/06/25 09:15:03;;;;;;;5.07;3.38;;;;;;;-146.27;37.67;78238.16;5049483;28;20037;-68
2023/06/25 09:17:29;;;;;;;7.97;3.55;;;;;;;-146.27;37.82;78216.06;5049551;28;20033;-68
2023/06/25 09:19:54;;;;;;;4.05;3.42;;;;;;;-146.27;37.30;78147.84;5044262;28;20033;-68
2023/06/25 09:22:20;;;;;;;4.85;3.15;;;;;;;-146.27;37.27;78099.69;5048030;28;20032;-68
2023/06/25 09:24:49;;;;;;;5.55;3.10;;;;;;;-146.27;37.13;78063.56;5049218;28;20042;-68
2023/06/25 09:27:19;;;;;;;4.05;2.90;;;;;;;-146.27;36.73;77947.19;5049413;28;20388;-68
2023/06/25 09:29:45;;;;;;;3.83;2.80;;;;;;;-146.27;35.16;77977.28;5040376;28;20037;-68
2023/06/25 09:32:11;;;;;;;5.70;2.58;;;;;;;-146.27;35.22;77874.94;5049321;28;20035;-68
2023/06/25 09:34:39;;;;;;;4.20;2.70;;;;;;;-146.27;33.35;77947.19;5048566;28;20449;-67
2023/06/25 09:37:05;;;;;;;4.22;3.17;;;;;;;-146.27;33.53;77838.84;5049401;28;20056;-67
2023/06/25 09:39:30;;;;;;;5.40;2.72;;;;;;;-146.27;33.58;77854.88;5048377;28;20484;-68
2023/06/25 09:41:56;;;;;;;4.88;2.53;;;;;;;-146.27;33.95;77722.47;5051936;28;20431;-68
2023/06/25 09:44:22;;;;;;;4.63;2.97;;;;;;;-146.27;32.63;77722.47;5053171;28;20528;-69
2023/06/25 09:46:52;;;;;;;2.80;2.33;;;;;;;-146.27;33.37;77652.22;5050942;28;20021;-68
2023/06/25 09:49:19;;;;;;;3.70;2.50;;;;;;;-146.27;32.75;77545.88;5049401;28;20094;-69
2023/06/25 09:52:09;;;;;;;5.25;2.72;;;;;;;-146.27;32.60;77638.19;5025973;28;20481;-68
2023/06/25 09:54:39;;;;;;;4.45;2.92;;;;;;;-146.27;32.60;77481.69;5043870;28;20044;-69
2023/06/25 09:57:09;;;;;;;5.30;2.47;;;;;;;-146.27;31.80;77493.72;5051955;28;20040;-70
2023/06/25 09:59:35;;;;;;;3.45;2.53;;;;;;;-146.27;33.38;77351.28;5051146;28;20186;-68
2023/06/25 10:02:02;;;;;;;3.65;2.60;;;;;;;-146.27;33.06;77307.13;5049876;28;20052;-69
2023/06/25 10:04:30;;;;;;;4.05;2.67;;;;;;;-146.27;32.01;77381.38;5034858;28;20033;-68
2023/06/25 10:06:56;;;;;;;6.25;2.22;;;;;;;-146.27;33.06;77240.94;5052831;28;20021;-69
2023/06/25 10:09:21;;;;;;;3.15;2.40;;;;;;;-146.27;32.15;77172.72;5052759;28;20111;-69
2023/06/25 10:11:51;;;;;;;4.03;2.67;;;;;;;-146.27;32.29;77002.19;5051923;28;20104;-69
2023/06/25 10:14:17;;;;;;;4.53;2.67;;;;;;;-146.27;32.66;76931.97;5034235;28;20036;-68
2023/06/25 10:16:51;;;;;;;4.57;2.50;;;;;;;-146.27;32.59;76982.13;5029548;28;20341;-70
2023/06/25 10:19:24;;;;;;;5.35;2.72;;;;;;;-146.27;33.12;76757.47;5046478;28;20094;-70
2023/06/25 10:22:00;;;;;;;;;;;;;;;-146.27;33.27;76683.25;5050201;28;20021;-71
2023/06/25 10:24:25;;;;;;;3.38;2.45;;;;;;;-146.27;32.27;76623.06;5049663;28;19966;-73
2023/06/25 10:26:53;;;;;;;4.15;2.70;;;;;;;-146.27;31.93;76617.03;5049869;28;20028;-72
2023/06/25 10:29:19;;;;;;;4.35;2.60;;;;;;;-146.27;32.72;76566.91;5050610;28;20048;-72
2023/06/25 10:31:45;;;;;;;3.10;2.58;;;;;;;-146.27;32.95;76474.63;5050194;28;20021;-70
2023/06/25 10:34:13;;;;;;;6.00;2.92;;;;;;;-146.27;32.26;76418.47;5047474;28;20026;-73
2023/06/25 10:36:49;;;;;;;3.63;2.78;;;;;;;-146.27;32.23;76258.00;5051525;28;20059;-70
2023/06/25 10:39:14;;;;;;;3.88;2.90;;;;;;;-146.27;33.26;76171.75;5050768;28;20051;-71
2023/06/25 10:41:46;;;;;;;4.80;2.90;;;;;;;-146.27;32.40;76089.53;5050694;28;20028;-71
2023/06/25 10:44:12;;;;;;;5.60;2.60;;;;;;;-146.27;32.60;76093.53;5051110;28;20029;-72
2023/06/25 10:46:37;;;;;;;3.45;2.70;;;;;;;-146.27;32.43;75907.00;5047380;28;20064;-71
2023/06/25 10:49:03;;;;;;;6.88;3.00;;;;;;;-146.27;32.40;75854.88;5045499;28;20468;-73
2023/06/25 10:51:29;;;;;;;3.72;3.08;;;;;;;-146.27;31.07;75724.50;5049277;28;20029;-71
2023/06/25 10:53:55;;;;;;;5.00;3.10;;;;;;;-146.27;31.47;75714.47;5051222;28;20032;-71
2023/06/25 10:56:22;;;;;;;5.38;2.97;;;;;;;-146.27;31.32;75760.59;5038034;28;20125;-72
2023/06/25 10:58:54;;;;;;;4.28;3.10;;;;;;;-146.27;31.59;75852.84;5035184;28;20119;-71
2023/06/25 11:01:19;;;;;;;3.47;2.83;;;;;;;-146.27;31.89;75874.91;5032247;28;20021;-71
2023/06/25 11:03:48;;;;;;;5.47;3.53;;;;;;;-146.27;31.45;75764.63;5040104;28;20431;-71